sensor_id;sensor_type;location;lat;lon;timestamp;noise_LAeq;noise_LA_min;noise_LA_max;noise_LA01;noise_LA95
37223;Laerm;28026;48.562;14.440;2023-07-13T00:00:26;42.07;36.45;56.02;;
37223;Laerm;28026;48.562;14.440;2023-07-13T00:02:57;42.05;36.20;58.93;;
37223;Laerm;28026;48.562;14.440;2023-07-13T00:05:28;41.29;35.04;57.25;;
37223;Laerm;28026;48.562;14.440;2023-07-13T00:07:59;40.28;34.69;55.15;;
37223;Laerm;28026;48.562;14.440;2023-07-13T00:10:30;40.83;35.66;51.58;;
37223;Laerm;28026;48.562;14.440;2023-07-13T00:13:02;40.91;36.20;53.14;;
37223;Laerm;28026;48.562;14.440;2023-07-13T00:15:33;40.97;33.90;53.49;;
37223;Laerm;28026;48.562;14.440;2023-07-13T00:18:04;40.37;33.44;53.06;;
37223;Laerm;28026;48.562;14.440;2023-07-13T00:20:35;39.18;33.44;51.02;;
37223;Laerm;28026;48.562;14.440;2023-07-13T00:23:06;38.27;31.68;51.87;;
37223;Laerm;28026;48.562;14.440;2023-07-13T00:25:37;38.67;32.93;53.90;;
37223;Laerm;28026;48.562;14.440;2023-07-13T00:28:08;38.64;33.44;53.20;;
37223;Laerm;28026;48.562;14.440;2023-07-13T00:30:39;41.53;33.90;53.92;;
37223;Laerm;28026;48.562;14.440;2023-07-13T00:33:09;45.21;40.98;57.64;;
37223;Laerm;28026;48.562;14.440;2023-07-13T00:35:40;46.98;40.03;60.55;;
37223;Laerm;28026;48.562;14.440;2023-07-13T00:38:14;44.95;35.66;60.59;;
37223;Laerm;28026;48.562;14.440;2023-07-13T00:40:45;43.85;36.20;58.99;;
37223;Laerm;28026;48.562;14.440;2023-07-13T00:43:23;41.96;34.31;59.77;;
37223;Laerm;28026;48.562;14.440;2023-07-13T00:46:30;41.23;34.31;57.04;;
37223;Laerm;28026;48.562;14.440;2023-07-13T00:49:09;41.41;33.44;58.44;;
37223;Laerm;28026;48.562;14.440;2023-07-13T00:51:53;47.00;35.04;77.83;;
37223;Laerm;28026;48.562;14.440;2023-07-13T00:54:32;40.44;35.04;59.39;;
37223;Laerm;28026;48.562;14.440;2023-07-13T00:57:15;39.82;34.31;56.89;;
37223;Laerm;28026;48.562;14.440;2023-07-13T00:59:55;41.11;34.31;60.00;;
37223;Laerm;28026;48.562;14.440;2023-07-13T01:02:29;40.71;35.04;61.13;;
37223;Laerm;28026;48.562;14.440;2023-07-13T01:04:59;40.84;33.90;63.02;;
37223;Laerm;28026;48.562;14.440;2023-07-13T01:07:32;39.12;33.44;57.15;;
37223;Laerm;28026;48.562;14.440;2023-07-13T01:10:04;40.19;32.35;64.43;;
37223;Laerm;28026;48.562;14.440;2023-07-13T01:12:35;38.22;32.35;53.80;;
37223;Laerm;28026;48.562;14.440;2023-07-13T01:15:42;52.86;32.35;83.76;;
37223;Laerm;28026;48.562;14.440;2023-07-13T01:18:32;53.33;33.44;77.62;;
37223;Laerm;28026;48.562;14.440;2023-07-13T01:21:04;51.23;32.93;75.91;;
37223;Laerm;28026;48.562;14.440;2023-07-13T01:23:35;48.03;31.68;72.58;;
37223;Laerm;28026;48.562;14.440;2023-07-13T01:26:06;39.43;30.89;62.73;;
37223;Laerm;28026;48.562;14.440;2023-07-13T01:28:38;43.50;30.89;72.74;;
37223;Laerm;28026;48.562;14.440;2023-07-13T01:31:10;40.32;30.89;62.35;;
37223;Laerm;28026;48.562;14.440;2023-07-13T01:33:42;46.82;31.68;74.98;;
37223;Laerm;28026;48.562;14.440;2023-07-13T01:36:13;49.44;30.89;78.06;;
37223;Laerm;28026;48.562;14.440;2023-07-13T01:38:44;42.60;33.90;64.98;;
37223;Laerm;28026;48.562;14.440;2023-07-13T01:41:15;42.13;32.35;66.56;;
37223;Laerm;28026;48.562;14.440;2023-07-13T01:43:46;39.41;32.35;60.08;;
37223;Laerm;28026;48.562;14.440;2023-07-13T01:46:17;48.55;32.35;78.14;;
37223;Laerm;28026;48.562;14.440;2023-07-13T01:48:48;41.35;31.68;55.46;;
37223;Laerm;28026;48.562;14.440;2023-07-13T01:51:20;39.56;31.68;62.30;;
37223;Laerm;28026;48.562;14.440;2023-07-13T01:53:51;42.14;31.68;67.60;;
37223;Laerm;28026;48.562;14.440;2023-07-13T01:56:22;41.78;31.68;66.46;;
37223;Laerm;28026;48.562;14.440;2023-07-13T01:58:53;40.81;32.93;61.76;;
37223;Laerm;28026;48.562;14.440;2023-07-13T02:01:24;44.97;32.35;68.02;;
37223;Laerm;28026;48.562;14.440;2023-07-13T02:03:55;40.56;34.31;54.14;;
37223;Laerm;28026;48.562;14.440;2023-07-13T02:06:26;40.78;31.68;63.26;;
37223;Laerm;28026;48.562;14.440;2023-07-13T02:08:58;41.34;32.93;58.12;;
37223;Laerm;28026;48.562;14.440;2023-07-13T02:11:29;40.36;31.68;59.54;;
37223;Laerm;28026;48.562;14.440;2023-07-13T02:14:03;48.81;31.68;74.25;;
37223;Laerm;28026;48.562;14.440;2023-07-13T02:16:34;40.84;32.35;67.76;;
37223;Laerm;28026;48.562;14.440;2023-07-13T02:19:05;38.64;31.33;53.82;;
37223;Laerm;28026;48.562;14.440;2023-07-13T02:21:36;41.03;32.93;54.95;;
37223;Laerm;28026;48.562;14.440;2023-07-13T02:24:07;44.49;32.93;71.42;;
37223;Laerm;28026;48.562;14.440;2023-07-13T02:26:38;45.76;34.31;68.38;;
37223;Laerm;28026;48.562;14.440;2023-07-13T02:29:11;42.25;34.69;65.31;;
37223;Laerm;28026;48.562;14.440;2023-07-13T02:31:41;39.04;30.89;57.00;;
37223;Laerm;28026;48.562;14.440;2023-07-13T02:34:14;40.06;32.35;57.10;;
37223;Laerm;28026;48.562;14.440;2023-07-13T02:36:45;43.28;32.00;71.21;;
37223;Laerm;28026;48.562;14.440;2023-07-13T02:39:16;41.54;30.89;71.12;;
37223;Laerm;28026;48.562;14.440;2023-07-13T02:41:47;39.80;32.35;60.45;;
37223;Laerm;28026;48.562;14.440;2023-07-13T02:44:18;42.00;32.93;67.59;;
37223;Laerm;28026;48.562;14.440;2023-07-13T02:46:49;42.17;31.68;69.14;;
37223;Laerm;28026;48.562;14.440;2023-07-13T02:49:20;49.81;32.93;71.92;;
37223;Laerm;28026;48.562;14.440;2023-07-13T02:51:51;40.77;35.04;54.88;;
37223;Laerm;28026;48.562;14.440;2023-07-13T02:54:22;38.34;32.93;52.24;;
37223;Laerm;28026;48.562;14.440;2023-07-13T02:56:53;41.35;32.93;63.42;;
37223;Laerm;28026;48.562;14.440;2023-07-13T02:59:24;46.25;30.89;77.81;;
37223;Laerm;28026;48.562;14.440;2023-07-13T03:01:54;40.95;32.35;67.89;;
37223;Laerm;28026;48.562;14.440;2023-07-13T03:04:26;40.39;32.35;54.54;;
37223;Laerm;28026;48.562;14.440;2023-07-13T03:06:56;42.62;35.04;54.74;;
37223;Laerm;28026;48.562;14.440;2023-07-13T03:09:28;39.31;32.35;53.03;;
37223;Laerm;28026;48.562;14.440;2023-07-13T03:11:59;41.49;31.68;62.86;;
37223;Laerm;28026;48.562;14.440;2023-07-13T03:14:30;41.24;32.93;65.03;;
37223;Laerm;28026;48.562;14.440;2023-07-13T03:17:01;43.26;32.93;63.69;;
37223;Laerm;28026;48.562;14.440;2023-07-13T03:19:32;46.80;33.90;71.19;;
37223;Laerm;28026;48.562;14.440;2023-07-13T03:22:03;41.50;34.31;63.61;;
37223;Laerm;28026;48.562;14.440;2023-07-13T03:24:34;40.88;33.90;64.06;;
37223;Laerm;28026;48.562;14.440;2023-07-13T03:27:07;39.84;32.93;59.05;;
37223;Laerm;28026;48.562;14.440;2023-07-13T03:29:38;41.80;34.69;64.33;;
37223;Laerm;28026;48.562;14.440;2023-07-13T03:32:09;41.84;33.90;50.81;;
37223;Laerm;28026;48.562;14.440;2023-07-13T03:34:40;41.40;35.36;58.54;;
37223;Laerm;28026;48.562;14.440;2023-07-13T03:37:11;40.53;32.93;45.42;;
37223;Laerm;28026;48.562;14.440;2023-07-13T03:39:42;41.83;35.94;45.63;;
37223;Laerm;28026;48.562;14.440;2023-07-13T03:42:13;40.48;35.31;44.94;;
37223;Laerm;28026;48.562;14.440;2023-07-13T03:44:44;39.69;32.35;54.47;;
37223;Laerm;28026;48.562;14.440;2023-07-13T03:47:21;43.13;33.90;66.86;;
37223;Laerm;28026;48.562;14.440;2023-07-13T03:49:52;38.86;33.44;51.30;;
37223;Laerm;28026;48.562;14.440;2023-07-13T03:52:24;40.57;35.04;58.78;;
37223;Laerm;28026;48.562;14.440;2023-07-13T03:54:55;41.77;33.90;51.37;;
37223;Laerm;28026;48.562;14.440;2023-07-13T03:57:26;40.21;32.93;57.84;;
37223;Laerm;28026;48.562;14.440;2023-07-13T03:59:57;43.82;34.69;64.22;;
37223;Laerm;28026;48.562;14.440;2023-07-13T04:02:28;49.18;33.90;76.61;;
37223;Laerm;28026;48.562;14.440;2023-07-13T04:04:58;51.80;36.20;74.09;;
37223;Laerm;28026;48.562;14.440;2023-07-13T04:07:29;49.42;36.20;74.29;;
37223;Laerm;28026;48.562;14.440;2023-07-13T04:10:00;51.30;34.31;75.91;;
37223;Laerm;28026;48.562;14.440;2023-07-13T04:12:31;45.65;33.90;71.38;;
37223;Laerm;28026;48.562;14.440;2023-07-13T04:15:02;42.63;33.90;68.92;;
37223;Laerm;28026;48.562;14.440;2023-07-13T04:17:33;45.52;33.44;70.21;;
37223;Laerm;28026;48.562;14.440;2023-07-13T04:20:05;43.34;33.44;63.85;;
37223;Laerm;28026;48.562;14.440;2023-07-13T04:22:36;43.65;33.90;67.16;;
37223;Laerm;28026;48.562;14.440;2023-07-13T04:25:07;42.43;33.44;71.46;;
37223;Laerm;28026;48.562;14.440;2023-07-13T04:27:38;45.54;34.69;72.47;;
37223;Laerm;28026;48.562;14.440;2023-07-13T04:30:10;41.26;36.20;61.25;;
37223;Laerm;28026;48.562;14.440;2023-07-13T04:32:41;40.40;33.44;56.63;;
37223;Laerm;28026;48.562;14.440;2023-07-13T04:35:12;41.05;33.44;59.33;;
37223;Laerm;28026;48.562;14.440;2023-07-13T04:37:44;41.39;35.36;60.60;;
37223;Laerm;28026;48.562;14.440;2023-07-13T04:40:20;43.02;37.12;59.02;;
37223;Laerm;28026;48.562;14.440;2023-07-13T04:42:51;43.19;36.20;67.19;;
37223;Laerm;28026;48.562;14.440;2023-07-13T04:45:22;43.17;35.94;64.34;;
37223;Laerm;28026;48.562;14.440;2023-07-13T04:47:54;45.12;35.04;66.68;;
37223;Laerm;28026;48.562;14.440;2023-07-13T04:50:25;46.12;37.12;71.01;;
37223;Laerm;28026;48.562;14.440;2023-07-13T04:52:56;46.64;36.20;71.60;;
37223;Laerm;28026;48.562;14.440;2023-07-13T04:55:27;44.26;35.04;71.65;;
37223;Laerm;28026;48.562;14.440;2023-07-13T04:58:01;41.29;34.69;55.58;;
37223;Laerm;28026;48.562;14.440;2023-07-13T05:00:33;42.34;34.69;64.91;;
37223;Laerm;28026;48.562;14.440;2023-07-13T05:03:04;42.71;34.31;63.05;;
37223;Laerm;28026;48.562;14.440;2023-07-13T05:05:35;43.36;35.36;60.32;;
37223;Laerm;28026;48.562;14.440;2023-07-13T05:08:06;45.83;36.69;69.86;;
37223;Laerm;28026;48.562;14.440;2023-07-13T05:10:38;46.99;35.04;71.86;;
37223;Laerm;28026;48.562;14.440;2023-07-13T05:13:08;46.69;34.31;66.84;;
37223;Laerm;28026;48.562;14.440;2023-07-13T05:15:39;48.74;37.32;72.28;;
37223;Laerm;28026;48.562;14.440;2023-07-13T05:18:10;49.24;36.69;77.71;;
37223;Laerm;28026;48.562;14.440;2023-07-13T05:20:41;53.55;35.36;83.33;;
37223;Laerm;28026;48.562;14.440;2023-07-13T05:23:12;47.30;37.12;77.95;;
37223;Laerm;28026;48.562;14.440;2023-07-13T05:25:43;46.01;35.36;74.19;;
37223;Laerm;28026;48.562;14.440;2023-07-13T05:28:14;47.13;35.04;73.11;;
37223;Laerm;28026;48.562;14.440;2023-07-13T05:30:50;45.00;34.69;67.62;;
37223;Laerm;28026;48.562;14.440;2023-07-13T05:33:21;40.71;35.36;48.96;;
37223;Laerm;28026;48.562;14.440;2023-07-13T05:35:52;39.60;34.69;58.45;;
37223;Laerm;28026;48.562;14.440;2023-07-13T05:38:23;40.86;34.69;54.16;;
37223;Laerm;28026;48.562;14.440;2023-07-13T05:40:56;42.20;36.20;53.64;;
37223;Laerm;28026;48.562;14.440;2023-07-13T05:43:27;39.32;34.31;47.48;;
37223;Laerm;28026;48.562;14.440;2023-07-13T05:45:58;41.17;35.94;49.56;;
37223;Laerm;28026;48.562;14.440;2023-07-13T05:48:29;39.80;35.36;43.94;;
37223;Laerm;28026;48.562;14.440;2023-07-13T05:51:01;40.82;35.66;45.94;;
37223;Laerm;28026;48.562;14.440;2023-07-13T05:53:34;41.15;36.34;50.66;;
37223;Laerm;28026;48.562;14.440;2023-07-13T05:56:06;41.86;36.45;63.64;;
37223;Laerm;28026;48.562;14.440;2023-07-13T05:58:38;39.77;34.31;53.02;;
37223;Laerm;28026;48.562;14.440;2023-07-13T06:01:14;39.11;33.90;55.76;;
37223;Laerm;28026;48.562;14.440;2023-07-13T06:03:46;39.76;33.44;52.41;;
37223;Laerm;28026;48.562;14.440;2023-07-13T06:06:17;41.12;34.69;56.95;;
37223;Laerm;28026;48.562;14.440;2023-07-13T06:08:48;43.56;35.66;71.91;;
37223;Laerm;28026;48.562;14.440;2023-07-13T06:11:26;42.82;35.36;68.99;;
37223;Laerm;28026;48.562;14.440;2023-07-13T06:13:58;40.29;34.69;56.97;;
37223;Laerm;28026;48.562;14.440;2023-07-13T06:16:29;42.18;36.20;51.45;;
37223;Laerm;28026;48.562;14.440;2023-07-13T06:18:59;41.14;35.66;59.55;;
37223;Laerm;28026;48.562;14.440;2023-07-13T06:21:30;43.96;35.94;70.78;;
37223;Laerm;28026;48.562;14.440;2023-07-13T06:24:01;47.06;35.66;71.19;;
37223;Laerm;28026;48.562;14.440;2023-07-13T06:26:32;47.10;36.20;70.22;;
37223;Laerm;28026;48.562;14.440;2023-07-13T06:29:03;50.19;35.36;80.64;;
37223;Laerm;28026;48.562;14.440;2023-07-13T06:31:34;47.62;35.04;72.10;;
37223;Laerm;28026;48.562;14.440;2023-07-13T06:34:05;46.79;33.90;75.00;;
37223;Laerm;28026;48.562;14.440;2023-07-13T06:36:36;42.82;33.90;68.95;;
37223;Laerm;28026;48.562;14.440;2023-07-13T06:39:09;46.58;34.69;72.36;;
37223;Laerm;28026;48.562;14.440;2023-07-13T06:41:40;39.22;34.69;55.88;;
37223;Laerm;28026;48.562;14.440;2023-07-13T06:44:10;40.17;35.66;55.61;;
37223;Laerm;28026;48.562;14.440;2023-07-13T06:46:41;46.43;35.36;76.53;;
37223;Laerm;28026;48.562;14.440;2023-07-13T06:49:12;38.92;34.31;50.05;;
37223;Laerm;28026;48.562;14.440;2023-07-13T06:51:43;39.24;35.04;49.92;;
37223;Laerm;28026;48.562;14.440;2023-07-13T06:54:14;42.57;35.94;62.76;;
37223;Laerm;28026;48.562;14.440;2023-07-13T06:56:45;44.78;34.69;73.42;;
37223;Laerm;28026;48.562;14.440;2023-07-13T06:59:16;41.53;36.20;60.26;;
37223;Laerm;28026;48.562;14.440;2023-07-13T07:01:47;39.50;32.93;65.30;;
37223;Laerm;28026;48.562;14.440;2023-07-13T07:04:17;39.56;34.31;56.09;;
37223;Laerm;28026;48.562;14.440;2023-07-13T07:06:48;39.39;34.69;51.63;;
37223;Laerm;28026;48.562;14.440;2023-07-13T07:09:19;40.41;35.66;56.28;;
37223;Laerm;28026;48.562;14.440;2023-07-13T07:11:50;49.34;37.32;82.19;;
37223;Laerm;28026;48.562;14.440;2023-07-13T07:14:21;45.84;37.32;60.07;;
37223;Laerm;28026;48.562;14.440;2023-07-13T07:16:52;43.48;37.70;56.51;;
37223;Laerm;28026;48.562;14.440;2023-07-13T07:19:23;43.38;36.20;70.49;;
37223;Laerm;28026;48.562;14.440;2023-07-13T07:21:53;39.41;33.90;55.94;;
37223;Laerm;28026;48.562;14.440;2023-07-13T07:24:24;40.62;35.94;50.93;;
37223;Laerm;28026;48.562;14.440;2023-07-13T07:26:55;43.21;35.66;72.32;;
37223;Laerm;28026;48.562;14.440;2023-07-13T07:29:26;41.23;34.69;59.15;;
37223;Laerm;28026;48.562;14.440;2023-07-13T07:32:00;41.31;36.20;61.31;;
37223;Laerm;28026;48.562;14.440;2023-07-13T07:34:31;39.81;35.94;54.83;;
37223;Laerm;28026;48.562;14.440;2023-07-13T07:37:03;42.29;36.69;64.47;;
37223;Laerm;28026;48.562;14.440;2023-07-13T07:39:34;43.67;36.69;68.75;;
37223;Laerm;28026;48.562;14.440;2023-07-13T07:42:06;44.19;36.69;66.99;;
37223;Laerm;28026;48.562;14.440;2023-07-13T07:44:38;41.29;37.12;64.90;;
37223;Laerm;28026;48.562;14.440;2023-07-13T07:47:09;44.62;38.95;67.03;;
37223;Laerm;28026;48.562;14.440;2023-07-13T07:49:40;53.81;36.69;79.47;;
37223;Laerm;28026;48.562;14.440;2023-07-13T07:52:11;51.51;36.45;76.61;;
37223;Laerm;28026;48.562;14.440;2023-07-13T07:54:41;44.80;36.91;68.27;;
37223;Laerm;28026;48.562;14.440;2023-07-13T07:57:12;46.15;35.94;69.97;;
37223;Laerm;28026;48.562;14.440;2023-07-13T07:59:43;52.76;35.66;81.62;;
37223;Laerm;28026;48.562;14.440;2023-07-13T08:02:14;46.88;35.31;76.99;;
37223;Laerm;28026;48.562;14.440;2023-07-13T08:04:45;47.03;35.94;77.88;;
37223;Laerm;28026;48.562;14.440;2023-07-13T08:07:16;47.51;37.32;69.91;;
37223;Laerm;28026;48.562;14.440;2023-07-13T08:09:47;49.21;36.20;78.85;;
37223;Laerm;28026;48.562;14.440;2023-07-13T08:12:17;48.49;36.69;75.91;;
37223;Laerm;28026;48.562;14.440;2023-07-13T08:14:52;40.36;35.66;54.78;;
37223;Laerm;28026;48.562;14.440;2023-07-13T08:17:28;39.91;33.90;48.96;;
37223;Laerm;28026;48.562;14.440;2023-07-13T08:19:59;40.20;35.04;61.72;;
37223;Laerm;28026;48.562;14.440;2023-07-13T08:22:30;41.06;35.94;62.13;;
37223;Laerm;28026;48.562;14.440;2023-07-13T08:25:02;47.88;35.36;75.78;;
37223;Laerm;28026;48.562;14.440;2023-07-13T08:27:33;45.54;35.94;69.59;;
37223;Laerm;28026;48.562;14.440;2023-07-13T08:30:06;45.72;35.94;68.05;;
37223;Laerm;28026;48.562;14.440;2023-07-13T08:32:38;43.42;34.69;65.02;;
37223;Laerm;28026;48.562;14.440;2023-07-13T08:35:09;46.35;33.90;71.56;;
37223;Laerm;28026;48.562;14.440;2023-07-13T08:37:40;42.58;35.66;57.69;;
37223;Laerm;28026;48.562;14.440;2023-07-13T08:40:13;45.78;37.52;63.32;;
37223;Laerm;28026;48.562;14.440;2023-07-13T08:43:16;42.22;35.66;61.77;;
37223;Laerm;28026;48.562;14.440;2023-07-13T08:46:01;44.81;35.04;72.78;;
37223;Laerm;28026;48.562;14.440;2023-07-13T08:49:01;51.47;36.91;76.77;;
37223;Laerm;28026;48.562;14.440;2023-07-13T08:54:32;46.53;35.66;73.41;;
37223;Laerm;28026;48.562;14.440;2023-07-13T08:57:21;45.03;35.94;73.20;;
37223;Laerm;28026;48.562;14.440;2023-07-13T08:59:52;42.37;35.66;66.95;;
37223;Laerm;28026;48.562;14.440;2023-07-13T09:02:48;43.33;38.05;60.64;;
37223;Laerm;28026;48.562;14.440;2023-07-13T09:05:40;46.44;36.45;72.12;;
37223;Laerm;28026;48.562;14.440;2023-07-13T09:11:52;53.63;34.69;82.46;;
37223;Laerm;28026;48.562;14.440;2023-07-13T09:14:50;47.10;36.91;73.03;;
37223;Laerm;28026;48.562;14.440;2023-07-13T09:17:32;51.40;35.94;75.33;;
37223;Laerm;28026;48.562;14.440;2023-07-13T09:20:36;47.78;34.31;75.38;;
37223;Laerm;28026;48.562;14.440;2023-07-13T09:23:20;49.64;35.66;75.71;;
37223;Laerm;28026;48.562;14.440;2023-07-13T09:26:02;55.55;35.94;82.44;;
37223;Laerm;28026;48.562;14.440;2023-07-13T09:28:42;55.83;34.31;84.60;;
37223;Laerm;28026;48.562;14.440;2023-07-13T09:31:39;53.21;35.94;77.53;;
37223;Laerm;28026;48.562;14.440;2023-07-13T09:34:13;62.10;37.88;88.54;;
37223;Laerm;28026;48.562;14.440;2023-07-13T09:36:44;57.31;37.12;83.41;;
37223;Laerm;28026;48.562;14.440;2023-07-13T09:39:39;63.88;38.05;87.74;;
37223;Laerm;28026;48.562;14.440;2023-07-13T09:42:18;57.23;36.20;83.73;;
37223;Laerm;28026;48.562;14.440;2023-07-13T09:45:02;54.74;38.81;76.81;;
37223;Laerm;28026;48.562;14.440;2023-07-13T09:47:40;44.78;38.02;65.21;;
37223;Laerm;28026;48.562;14.440;2023-07-13T09:50:16;50.29;34.31;74.76;;
37223;Laerm;28026;48.562;14.440;2023-07-13T09:52:49;44.90;35.94;69.27;;
37223;Laerm;28026;48.562;14.440;2023-07-13T09:55:36;45.39;38.21;67.69;;
37223;Laerm;28026;48.562;14.440;2023-07-13T09:58:20;53.49;37.12;83.14;;
37223;Laerm;28026;48.562;14.440;2023-07-13T10:01:03;56.50;34.69;86.01;;
37223;Laerm;28026;48.562;14.440;2023-07-13T10:03:36;53.50;36.20;78.16;;
37223;Laerm;28026;48.562;14.440;2023-07-13T10:06:20;51.53;35.36;77.31;;
37223;Laerm;28026;48.562;14.440;2023-07-13T10:08:56;48.00;37.52;65.07;;
37223;Laerm;28026;48.562;14.440;2023-07-13T10:11:29;45.45;37.70;64.63;;
37223;Laerm;28026;48.562;14.440;2023-07-13T10:14:14;54.84;36.20;81.01;;
37223;Laerm;28026;48.562;14.440;2023-07-13T10:16:52;47.45;37.88;66.80;;
37223;Laerm;28026;48.562;14.440;2023-07-13T10:19:34;57.13;38.52;86.81;;
37223;Laerm;28026;48.562;14.440;2023-07-13T10:22:27;52.63;38.05;80.78;;
37223;Laerm;28026;48.562;14.440;2023-07-13T10:25:01;62.35;38.95;92.44;;
37223;Laerm;28026;48.562;14.440;2023-07-13T10:27:36;51.75;36.91;76.89;;
37223;Laerm;28026;48.562;14.440;2023-07-13T10:30:24;46.67;37.52;70.35;;
37223;Laerm;28026;48.562;14.440;2023-07-13T10:33:04;47.70;37.32;64.27;;
37223;Laerm;28026;48.562;14.440;2023-07-13T10:35:42;53.30;38.37;78.72;;
37223;Laerm;28026;48.562;14.440;2023-07-13T10:38:23;55.27;37.35;84.40;;
37223;Laerm;28026;48.562;14.440;2023-07-13T10:41:15;61.72;38.05;85.48;;
37223;Laerm;28026;48.562;14.440;2023-07-13T10:43:52;63.84;38.05;91.04;;
37223;Laerm;28026;48.562;14.440;2023-07-13T10:46:28;53.42;36.45;78.36;;
37223;Laerm;28026;48.562;14.440;2023-07-13T10:49:07;54.94;34.69;82.55;;
37223;Laerm;28026;48.562;14.440;2023-07-13T10:51:40;48.24;36.69;73.07;;
37223;Laerm;28026;48.562;14.440;2023-07-13T10:54:22;49.31;38.21;77.19;;
37223;Laerm;28026;48.562;14.440;2023-07-13T10:57:20;50.52;36.91;78.29;;
37223;Laerm;28026;48.562;14.440;2023-07-13T11:00:17;46.96;35.04;74.98;;
37223;Laerm;28026;48.562;14.440;2023-07-13T11:03:02;45.89;34.69;71.33;;
37223;Laerm;28026;48.562;14.440;2023-07-13T11:05:34;50.90;38.05;81.16;;
37223;Laerm;28026;48.562;14.440;2023-07-13T11:08:23;56.48;38.05;82.03;;
37223;Laerm;28026;48.562;14.440;2023-07-13T11:11:03;62.42;38.67;88.94;;
37223;Laerm;28026;48.562;14.440;2023-07-13T11:22:12;51.19;35.04;79.29;;
37223;Laerm;28026;48.562;14.440;2023-07-13T11:24:59;44.74;36.45;69.70;;
37223;Laerm;28026;48.562;14.440;2023-07-13T11:27:41;59.75;35.94;86.58;;
37223;Laerm;28026;48.562;14.440;2023-07-13T11:33:19;41.95;37.70;60.33;;
37223;Laerm;28026;48.562;14.440;2023-07-13T11:38:39;44.00;33.44;69.49;;
37223;Laerm;28026;48.562;14.440;2023-07-13T11:41:30;58.61;34.69;89.03;;
37223;Laerm;28026;48.562;14.440;2023-07-13T11:47:00;54.66;34.69;82.22;;
37223;Laerm;28026;48.562;14.440;2023-07-13T11:49:43;42.36;33.90;66.20;;
37223;Laerm;28026;48.562;14.440;2023-07-13T11:52:20;47.72;35.66;71.43;;
37223;Laerm;28026;48.562;14.440;2023-07-13T11:54:56;43.67;37.88;59.75;;
37223;Laerm;28026;48.562;14.440;2023-07-13T11:57:42;60.05;36.20;92.84;;
37223;Laerm;28026;48.562;14.440;2023-07-13T12:00:23;60.34;35.66;86.67;;
37223;Laerm;28026;48.562;14.440;2023-07-13T12:02:59;59.48;36.20;83.99;;
37223;Laerm;28026;48.562;14.440;2023-07-13T12:05:31;49.08;36.69;78.52;;
37223;Laerm;28026;48.562;14.440;2023-07-13T12:08:11;44.91;35.31;67.20;;
37223;Laerm;28026;48.562;14.440;2023-07-13T12:10:42;50.35;36.69;83.61;;
37223;Laerm;28026;48.562;14.440;2023-07-13T12:13:13;47.89;37.88;75.70;;
37223;Laerm;28026;48.562;14.440;2023-07-13T12:15:46;53.53;37.70;81.74;;
37223;Laerm;28026;48.562;14.440;2023-07-13T12:18:24;54.34;36.45;81.03;;
37223;Laerm;28026;48.562;14.440;2023-07-13T12:21:00;63.55;36.45;89.09;;
37223;Laerm;28026;48.562;14.440;2023-07-13T12:23:35;47.93;36.91;76.19;;
37223;Laerm;28026;48.562;14.440;2023-07-13T12:26:09;51.87;38.05;80.62;;
37223;Laerm;28026;48.562;14.440;2023-07-13T12:29:00;47.24;37.52;74.19;;
37223;Laerm;28026;48.562;14.440;2023-07-13T12:31:41;61.69;37.52;91.47;;
37223;Laerm;28026;48.562;14.440;2023-07-13T12:34:23;58.76;38.67;83.18;;
37223;Laerm;28026;48.562;14.440;2023-07-13T12:37:01;53.52;38.52;79.84;;
37223;Laerm;28026;48.562;14.440;2023-07-13T12:39:48;55.93;37.70;81.22;;
37223;Laerm;28026;48.562;14.440;2023-07-13T12:42:28;47.89;34.31;71.20;;
37223;Laerm;28026;48.562;14.440;2023-07-13T12:45:24;45.37;36.69;76.12;;
37223;Laerm;28026;48.562;14.440;2023-07-13T12:48:13;42.78;35.94;68.07;;
37223;Laerm;28026;48.562;14.440;2023-07-13T12:50:48;45.28;37.12;66.64;;
37223;Laerm;28026;48.562;14.440;2023-07-13T12:53:28;46.56;38.37;72.24;;
37223;Laerm;28026;48.562;14.440;2023-07-13T12:56:04;42.97;36.69;66.45;;
37223;Laerm;28026;48.562;14.440;2023-07-13T12:58:41;49.75;35.66;72.54;;
37223;Laerm;28026;48.562;14.440;2023-07-13T13:01:14;49.62;35.94;70.55;;
37223;Laerm;28026;48.562;14.440;2023-07-13T13:03:51;58.53;37.32;87.02;;
37223;Laerm;28026;48.562;14.440;2023-07-13T13:06:29;50.20;36.69;80.32;;
37223;Laerm;28026;48.562;14.440;2023-07-13T13:09:00;54.29;36.20;82.94;;
37223;Laerm;28026;48.562;14.440;2023-07-13T13:11:32;52.91;36.91;79.92;;
37223;Laerm;28026;48.562;14.440;2023-07-13T13:14:03;55.67;36.69;82.53;;
37223;Laerm;28026;48.562;14.440;2023-07-13T13:16:49;56.53;36.91;83.74;;
37223;Laerm;28026;48.562;14.440;2023-07-13T13:19:28;55.11;35.36;85.85;;
37223;Laerm;28026;48.562;14.440;2023-07-13T13:21:59;54.92;35.66;77.57;;
37223;Laerm;28026;48.562;14.440;2023-07-13T13:24:30;50.48;33.44;78.01;;
37223;Laerm;28026;48.562;14.440;2023-07-13T13:27:01;55.26;37.88;81.32;;
37223;Laerm;28026;48.562;14.440;2023-07-13T13:29:36;44.12;36.91;67.87;;
37223;Laerm;28026;48.562;14.440;2023-07-13T13:32:14;46.85;35.94;75.75;;
37223;Laerm;28026;48.562;14.440;2023-07-13T13:34:45;51.24;36.91;76.76;;
37223;Laerm;28026;48.562;14.440;2023-07-13T13:37:23;55.15;36.69;82.90;;
37223;Laerm;28026;48.562;14.440;2023-07-13T13:39:55;45.07;36.45;72.28;;
37223;Laerm;28026;48.562;14.440;2023-07-13T13:42:26;42.19;35.04;58.19;;
37223;Laerm;28026;48.562;14.440;2023-07-13T13:44:59;40.65;34.69;58.88;;
37223;Laerm;28026;48.562;14.440;2023-07-13T13:47:33;45.81;36.69;71.58;;
37223;Laerm;28026;48.562;14.440;2023-07-13T13:50:27;48.56;35.94;76.62;;
37223;Laerm;28026;48.562;14.440;2023-07-13T13:52:58;50.60;36.91;80.74;;
37223;Laerm;28026;48.562;14.440;2023-07-13T13:55:29;45.94;36.45;67.76;;
37223;Laerm;28026;48.562;14.440;2023-07-13T13:58:00;52.66;37.87;76.33;;
37223;Laerm;28026;48.562;14.440;2023-07-13T14:00:31;45.03;37.12;67.30;;
37223;Laerm;28026;48.562;14.440;2023-07-13T14:03:02;49.87;37.70;82.02;;
37223;Laerm;28026;48.562;14.440;2023-07-13T14:05:34;41.95;36.20;64.92;;
37223;Laerm;28026;48.562;14.440;2023-07-13T14:08:20;42.51;35.94;63.24;;
37223;Laerm;28026;48.562;14.440;2023-07-13T14:10:57;55.69;35.36;87.38;;
37223;Laerm;28026;48.562;14.440;2023-07-13T14:13:38;47.02;38.52;74.70;;
37223;Laerm;28026;48.562;14.440;2023-07-13T14:16:19;46.52;35.94;70.13;;
37223;Laerm;28026;48.562;14.440;2023-07-13T14:18:51;51.13;35.94;83.69;;
37223;Laerm;28026;48.562;14.440;2023-07-13T14:21:22;61.97;38.21;89.49;;
37223;Laerm;28026;48.562;14.440;2023-07-13T14:23:53;59.20;37.12;85.10;;
37223;Laerm;28026;48.562;14.440;2023-07-13T14:26:26;53.96;36.45;78.24;;
37223;Laerm;28026;48.562;14.440;2023-07-13T14:28:58;54.18;37.12;83.54;;
37223;Laerm;28026;48.562;14.440;2023-07-13T14:31:29;41.59;35.94;58.82;;
37223;Laerm;28026;48.562;14.440;2023-07-13T14:34:00;47.42;36.69;74.00;;
37223;Laerm;28026;48.562;14.440;2023-07-13T14:36:34;42.22;35.94;71.64;;